Melbourne, FL (32934)

12:23 AM EDT on April 29, 2017 (GMT -0400)
Deerwood Estates, Poinciana Fl. | | Change Station

Elev 79 ft 28.16 °N, 81.48 °W | Updated 4 seconds ago

Mostly Cloudy
Mostly Cloudy
75.7 °F
Feels Like 76 °F
N
3.8
Wind Variable Wind from ESE
Gusts 4.9 mph

Today
High -- | Low -- °F
--% Chance of Precip.
Yesterday
High -- | Low -- °F
Precip. -- in
Pressure 30.13 in
Visibility 10.0 miles
Clouds Few 1200 ft
Few 1800 ft
Heat Index 76 °F
Dew Point 70.9 °F
Humidity 85%
Rainfall 0.00 in
Snow Depth Not available.
6:44 AM 7:56 PM
Waxing Crescent, 10% visible
METAR KMLB 290353Z AUTO 12008KT 10SM FEW012 FEW018 27/24 A3013 RMK AO2 SLP202 T02670239
Pressure 30.13 in
Visibility 10.0 miles
Clouds Few 1200 ft
Few 1800 ft
Heat Index 76 °F
Dew Point 70.9 °F
Humidity 85%
Rainfall 0.00 in
Snow Depth Not available.
6:44 AM 7:56 PM
Waxing Crescent, 10% visible
METAR KMLB 290353Z AUTO 12008KT 10SM FEW012 FEW018 27/24 A3013 RMK AO2 SLP202 T02670239

Get Severe Weather Alerts

Thanks for signing up!

Be on the lookout for a verification email in your inbox.

You'll start receiving the daily forecast at 8 AM.

×

10-Day Weather Forecast

Almanac

Astronomy

Apr. 29, 2017 Rise Set
Actual Time
Civil Twilight
Nautical Twilight
Astronomical Twilight
Moon
Length of Visible Light
Length of Day
Tomorrow will be .
, % of the Moon is Illuminated

Today's Extremes

State Highs State Lows

Community

WunderPhotos

WunderBlog® & News

Nearby

Air Quality

  Air Quality AQ Index Pollutant
Not available.

Snow Depth

Station Depth Elevation

Earthquake Activity

City Distance Mag. Time & Date
Minimum magnitude displayed is 2.5.

Coastal Water Temperatures

Place Temperature

Stations

Nearby Weather Stations

Station Location Temp. Windchill Dew Point Humidity Wind Precip. Elev Updated Type
                   

Watches & Warnings

There are currently no watches in effect.